Terminal Aerodrome Forecast
Issued by NWS

Current Version | Previous Version | Text Only | Print | Product List | Glossary On
Versions: 1 2 3 4 5 6 7 8 9 10 11 12 13 14 15 16
000
FTUS45 KFGZ 260500
TAFSEZ
TAF
KSEZ 260535Z 2606/2706 18014KT P6SM -SHRA OVC035
     FM260700 17010KT P6SM -SHRA OVC030
     FM261000 VRB06KT P6SM -SHRA OVC010
     FM261800 36011G18KT P6SM VCSH BKN025
     FM262100 31010G17KT P6SM BKN050=

USA.gov is the U.S. government's official web portal to all federal, state and local government web resources and services.